sensor_id;sensor_type;location;lat;lon;timestamp;temperature;humidity
8664;DHT22;4369;47.842;13.096;2023-11-19T00:00:30;5.20;99.90
8664;DHT22;4369;47.842;13.096;2023-11-19T00:02:57;5.20;99.90
8664;DHT22;4369;47.842;13.096;2023-11-19T00:05:24;5.30;99.90
8664;DHT22;4369;47.842;13.096;2023-11-19T00:07:50;5.20;99.90
8664;DHT22;4369;47.842;13.096;2023-11-19T00:10:17;5.20;99.90
8664;DHT22;4369;47.842;13.096;2023-11-19T00:12:46;5.10;99.90
8664;DHT22;4369;47.842;13.096;2023-11-19T00:15:15;5.10;99.90
8664;DHT22;4369;47.842;13.096;2023-11-19T00:17:45;5.10;99.90
8664;DHT22;4369;47.842;13.096;2023-11-19T00:20:13;5.20;99.90
8664;DHT22;4369;47.842;13.096;2023-11-19T00:22:41;5.20;99.90
8664;DHT22;4369;47.842;13.096;2023-11-19T00:25:08;5.10;99.90
8664;DHT22;4369;47.842;13.096;2023-11-19T00:27:35;5.10;99.90
8664;DHT22;4369;47.842;13.096;2023-11-19T00:30:03;5.20;99.90
8664;DHT22;4369;47.842;13.096;2023-11-19T00:32:32;5.10;99.90
8664;DHT22;4369;47.842;13.096;2023-11-19T00:34:59;5.10;99.90
8664;DHT22;4369;47.842;13.096;2023-11-19T00:37:26;5.10;99.90
8664;DHT22;4369;47.842;13.096;2023-11-19T00:39:53;5.10;99.90
8664;DHT22;4369;47.842;13.096;2023-11-19T00:42:21;5.20;99.90
8664;DHT22;4369;47.842;13.096;2023-11-19T00:44:49;5.20;99.90
8664;DHT22;4369;47.842;13.096;2023-11-19T00:47:16;5.20;99.90
8664;DHT22;4369;47.842;13.096;2023-11-19T00:49:47;5.20;99.90
8664;DHT22;4369;47.842;13.096;2023-11-19T00:52:15;5.20;99.90
8664;DHT22;4369;47.842;13.096;2023-11-19T00:54:42;5.20;99.90
8664;DHT22;4369;47.842;13.096;2023-11-19T00:57:09;5.20;99.90
8664;DHT22;4369;47.842;13.096;2023-11-19T00:59:36;5.20;99.90
8664;DHT22;4369;47.842;13.096;2023-11-19T01:02:03;5.20;99.90
8664;DHT22;4369;47.842;13.096;2023-11-19T01:04:33;5.10;99.90
8664;DHT22;4369;47.842;13.096;2023-11-19T01:07:03;5.10;99.90
8664;DHT22;4369;47.842;13.096;2023-11-19T01:09:30;5.20;99.90
8664;DHT22;4369;47.842;13.096;2023-11-19T01:12:00;5.20;99.90
8664;DHT22;4369;47.842;13.096;2023-11-19T01:14:28;5.30;99.90
8664;DHT22;4369;47.842;13.096;2023-11-19T01:16:55;5.30;99.90
8664;DHT22;4369;47.842;13.096;2023-11-19T01:19:22;5.40;99.90
8664;DHT22;4369;47.842;13.096;2023-11-19T01:21:50;5.30;99.90
8664;DHT22;4369;47.842;13.096;2023-11-19T01:24:18;5.30;99.90
8664;DHT22;4369;47.842;13.096;2023-11-19T01:26:45;5.30;99.90
8664;DHT22;4369;47.842;13.096;2023-11-19T01:29:12;5.20;99.90
8664;DHT22;4369;47.842;13.096;2023-11-19T01:31:40;5.30;99.90
8664;DHT22;4369;47.842;13.096;2023-11-19T01:34:07;5.30;99.90
8664;DHT22;4369;47.842;13.096;2023-11-19T01:36:34;5.30;99.90
8664;DHT22;4369;47.842;13.096;2023-11-19T01:39:01;5.40;99.90
8664;DHT22;4369;47.842;13.096;2023-11-19T01:41:34;5.40;99.90
8664;DHT22;4369;47.842;13.096;2023-11-19T01:44:01;5.40;99.90
8664;DHT22;4369;47.842;13.096;2023-11-19T01:46:28;5.40;99.90
8664;DHT22;4369;47.842;13.096;2023-11-19T01:48:57;5.40;99.90
8664;DHT22;4369;47.842;13.096;2023-11-19T01:51:24;5.40;99.90
8664;DHT22;4369;47.842;13.096;2023-11-19T01:53:52;5.40;99.90
8664;DHT22;4369;47.842;13.096;2023-11-19T01:56:20;5.30;99.90
8664;DHT22;4369;47.842;13.096;2023-11-19T01:58:50;5.30;99.90
8664;DHT22;4369;47.842;13.096;2023-11-19T02:01:17;5.30;99.90
8664;DHT22;4369;47.842;13.096;2023-11-19T02:03:44;5.40;99.90
8664;DHT22;4369;47.842;13.096;2023-11-19T02:06:12;5.50;99.90
8664;DHT22;4369;47.842;13.096;2023-11-19T02:08:39;5.60;99.90
8664;DHT22;4369;47.842;13.096;2023-11-19T02:11:07;5.50;99.90
8664;DHT22;4369;47.842;13.096;2023-11-19T02:13:34;5.60;99.90
8664;DHT22;4369;47.842;13.096;2023-11-19T02:16:05;5.60;99.90
8664;DHT22;4369;47.842;13.096;2023-11-19T02:18:34;5.50;99.90
8664;DHT22;4369;47.842;13.096;2023-11-19T02:21:01;5.50;99.90
8664;DHT22;4369;47.842;13.096;2023-11-19T02:23:28;5.50;99.90
8664;DHT22;4369;47.842;13.096;2023-11-19T02:26:02;5.60;99.90
8664;DHT22;4369;47.842;13.096;2023-11-19T02:28:32;5.60;99.90
8664;DHT22;4369;47.842;13.096;2023-11-19T02:30:59;5.50;99.90
8664;DHT22;4369;47.842;13.096;2023-11-19T02:33:26;5.50;99.90
8664;DHT22;4369;47.842;13.096;2023-11-19T02:35:53;5.40;99.90
8664;DHT22;4369;47.842;13.096;2023-11-19T02:38:20;5.40;99.90
8664;DHT22;4369;47.842;13.096;2023-11-19T02:40:48;5.40;99.90
8664;DHT22;4369;47.842;13.096;2023-11-19T02:43:15;5.40;99.90
8664;DHT22;4369;47.842;13.096;2023-11-19T02:45:44;5.50;99.90
8664;DHT22;4369;47.842;13.096;2023-11-19T02:48:11;5.50;99.90
8664;DHT22;4369;47.842;13.096;2023-11-19T02:50:39;5.60;99.90
8664;DHT22;4369;47.842;13.096;2023-11-19T02:53:06;5.60;99.90
8664;DHT22;4369;47.842;13.096;2023-11-19T02:55:33;5.60;99.90
8664;DHT22;4369;47.842;13.096;2023-11-19T02:58:03;5.50;99.90
8664;DHT22;4369;47.842;13.096;2023-11-19T03:00:35;5.50;99.90
8664;DHT22;4369;47.842;13.096;2023-11-19T03:03:09;5.50;99.90
8664;DHT22;4369;47.842;13.096;2023-11-19T03:05:45;5.40;99.90
8664;DHT22;4369;47.842;13.096;2023-11-19T03:08:14;5.40;99.90
8664;DHT22;4369;47.842;13.096;2023-11-19T03:10:40;5.40;99.90
8664;DHT22;4369;47.842;13.096;2023-11-19T03:13:11;5.40;99.90
8664;DHT22;4369;47.842;13.096;2023-11-19T03:15:39;5.40;99.90
8664;DHT22;4369;47.842;13.096;2023-11-19T03:18:06;5.40;99.90
8664;DHT22;4369;47.842;13.096;2023-11-19T03:20:34;5.30;99.90
8664;DHT22;4369;47.842;13.096;2023-11-19T03:23:01;5.50;99.90
8664;DHT22;4369;47.842;13.096;2023-11-19T03:25:28;5.50;99.90
8664;DHT22;4369;47.842;13.096;2023-11-19T03:27:59;5.60;99.90
8664;DHT22;4369;47.842;13.096;2023-11-19T03:30:26;5.60;99.90
8664;DHT22;4369;47.842;13.096;2023-11-19T03:32:54;5.60;99.90
8664;DHT22;4369;47.842;13.096;2023-11-19T03:35:21;5.70;99.90
8664;DHT22;4369;47.842;13.096;2023-11-19T03:37:50;5.60;99.90
8664;DHT22;4369;47.842;13.096;2023-11-19T03:40:17;5.70;99.90
8664;DHT22;4369;47.842;13.096;2023-11-19T03:42:45;5.70;99.90
8664;DHT22;4369;47.842;13.096;2023-11-19T03:45:12;5.60;99.90
8664;DHT22;4369;47.842;13.096;2023-11-19T03:47:38;5.70;99.90
8664;DHT22;4369;47.842;13.096;2023-11-19T03:50:07;5.60;99.90
8664;DHT22;4369;47.842;13.096;2023-11-19T03:52:34;5.60;99.90
8664;DHT22;4369;47.842;13.096;2023-11-19T03:55:03;5.60;99.90
8664;DHT22;4369;47.842;13.096;2023-11-19T03:57:31;5.60;99.90
8664;DHT22;4369;47.842;13.096;2023-11-19T03:59:57;5.70;99.90
8664;DHT22;4369;47.842;13.096;2023-11-19T04:02:25;5.70;99.90
8664;DHT22;4369;47.842;13.096;2023-11-19T04:04:53;5.70;99.90
8664;DHT22;4369;47.842;13.096;2023-11-19T04:07:21;5.70;99.90
8664;DHT22;4369;47.842;13.096;2023-11-19T04:09:48;5.80;99.90
8664;DHT22;4369;47.842;13.096;2023-11-19T04:12:16;5.80;99.90
8664;DHT22;4369;47.842;13.096;2023-11-19T04:14:43;5.80;99.90
8664;DHT22;4369;47.842;13.096;2023-11-19T04:17:10;5.80;99.90
8664;DHT22;4369;47.842;13.096;2023-11-19T04:19:38;5.80;99.90
8664;DHT22;4369;47.842;13.096;2023-11-19T04:22:06;5.80;99.90
8664;DHT22;4369;47.842;13.096;2023-11-19T04:24:33;5.80;99.90
8664;DHT22;4369;47.842;13.096;2023-11-19T04:27:00;5.80;99.90
8664;DHT22;4369;47.842;13.096;2023-11-19T04:29:30;5.80;99.90
8664;DHT22;4369;47.842;13.096;2023-11-19T04:31:57;5.70;99.90
8664;DHT22;4369;47.842;13.096;2023-11-19T04:34:24;5.80;99.90
8664;DHT22;4369;47.842;13.096;2023-11-19T04:36:51;5.80;99.90
8664;DHT22;4369;47.842;13.096;2023-11-19T04:39:18;5.80;99.90
8664;DHT22;4369;47.842;13.096;2023-11-19T04:41:48;5.90;99.90
8664;DHT22;4369;47.842;13.096;2023-11-19T04:44:16;5.90;99.90
8664;DHT22;4369;47.842;13.096;2023-11-19T04:46:44;5.90;99.90
8664;DHT22;4369;47.842;13.096;2023-11-19T04:49:12;5.90;99.90
8664;DHT22;4369;47.842;13.096;2023-11-19T04:51:40;5.90;99.90
8664;DHT22;4369;47.842;13.096;2023-11-19T04:54:07;5.80;99.90
8664;DHT22;4369;47.842;13.096;2023-11-19T04:56:35;5.80;99.90
8664;DHT22;4369;47.842;13.096;2023-11-19T04:59:03;5.80;99.90
8664;DHT22;4369;47.842;13.096;2023-11-19T05:01:31;5.70;99.90
8664;DHT22;4369;47.842;13.096;2023-11-19T05:04:00;5.70;99.90
8664;DHT22;4369;47.842;13.096;2023-11-19T05:06:27;5.80;99.90
8664;DHT22;4369;47.842;13.096;2023-11-19T05:08:55;5.80;99.90
8664;DHT22;4369;47.842;13.096;2023-11-19T05:11:22;5.90;99.90
8664;DHT22;4369;47.842;13.096;2023-11-19T05:13:49;5.90;99.90
8664;DHT22;4369;47.842;13.096;2023-11-19T05:16:16;5.90;99.90
8664;DHT22;4369;47.842;13.096;2023-11-19T05:18:44;5.90;99.90
8664;DHT22;4369;47.842;13.096;2023-11-19T05:21:13;5.90;99.90
8664;DHT22;4369;47.842;13.096;2023-11-19T05:23:40;5.90;99.90
8664;DHT22;4369;47.842;13.096;2023-11-19T05:26:07;5.90;99.90
8664;DHT22;4369;47.842;13.096;2023-11-19T05:28:37;6.00;99.90
8664;DHT22;4369;47.842;13.096;2023-11-19T05:31:05;6.00;99.90
8664;DHT22;4369;47.842;13.096;2023-11-19T05:33:32;6.00;99.90
8664;DHT22;4369;47.842;13.096;2023-11-19T05:35:59;6.10;99.90
8664;DHT22;4369;47.842;13.096;2023-11-19T05:38:30;6.00;99.90
8664;DHT22;4369;47.842;13.096;2023-11-19T05:40:57;6.10;99.90
8664;DHT22;4369;47.842;13.096;2023-11-19T05:43:24;6.00;99.90
8664;DHT22;4369;47.842;13.096;2023-11-19T05:45:50;6.10;99.90
8664;DHT22;4369;47.842;13.096;2023-11-19T05:48:17;6.10;99.90
8664;DHT22;4369;47.842;13.096;2023-11-19T05:50:44;6.10;99.90
8664;DHT22;4369;47.842;13.096;2023-11-19T05:53:11;6.10;99.90
8664;DHT22;4369;47.842;13.096;2023-11-19T05:55:41;6.10;99.90
8664;DHT22;4369;47.842;13.096;2023-11-19T05:58:14;6.10;99.90
8664;DHT22;4369;47.842;13.096;2023-11-19T06:00:41;6.20;99.90
8664;DHT22;4369;47.842;13.096;2023-11-19T06:03:08;6.20;99.90
8664;DHT22;4369;47.842;13.096;2023-11-19T06:05:35;6.20;99.90
8664;DHT22;4369;47.842;13.096;2023-11-19T06:08:02;6.20;99.90
8664;DHT22;4369;47.842;13.096;2023-11-19T06:10:29;6.20;99.90
8664;DHT22;4369;47.842;13.096;2023-11-19T06:12:59;6.30;99.90
8664;DHT22;4369;47.842;13.096;2023-11-19T06:15:30;6.30;99.90
8664;DHT22;4369;47.842;13.096;2023-11-19T06:17:58;6.30;99.90
8664;DHT22;4369;47.842;13.096;2023-11-19T06:20:27;6.40;99.90
8664;DHT22;4369;47.842;13.096;2023-11-19T06:22:54;6.40;99.90
8664;DHT22;4369;47.842;13.096;2023-11-19T06:25:22;6.40;99.90
8664;DHT22;4369;47.842;13.096;2023-11-19T06:27:49;6.40;99.90
8664;DHT22;4369;47.842;13.096;2023-11-19T06:30:18;6.40;99.90
8664;DHT22;4369;47.842;13.096;2023-11-19T06:32:46;6.40;99.90
8664;DHT22;4369;47.842;13.096;2023-11-19T06:35:13;6.40;99.90
8664;DHT22;4369;47.842;13.096;2023-11-19T06:37:40;6.50;99.90
8664;DHT22;4369;47.842;13.096;2023-11-19T06:40:08;6.40;99.90
8664;DHT22;4369;47.842;13.096;2023-11-19T06:42:36;6.50;99.90
8664;DHT22;4369;47.842;13.096;2023-11-19T06:45:03;6.50;99.90
8664;DHT22;4369;47.842;13.096;2023-11-19T06:47:33;6.50;99.90
8664;DHT22;4369;47.842;13.096;2023-11-19T06:50:00;6.40;99.90
8664;DHT22;4369;47.842;13.096;2023-11-19T06:52:27;6.50;99.90
8664;DHT22;4369;47.842;13.096;2023-11-19T06:54:53;6.50;99.90
8664;DHT22;4369;47.842;13.096;2023-11-19T06:57:20;6.50;99.90
8664;DHT22;4369;47.842;13.096;2023-11-19T06:59:49;6.60;99.90
8664;DHT22;4369;47.842;13.096;2023-11-19T07:02:16;6.50;99.90
8664;DHT22;4369;47.842;13.096;2023-11-19T07:04:44;6.50;99.90
8664;DHT22;4369;47.842;13.096;2023-11-19T07:07:11;6.50;99.90
8664;DHT22;4369;47.842;13.096;2023-11-19T07:09:39;6.60;99.90
8664;DHT22;4369;47.842;13.096;2023-11-19T07:12:06;6.50;99.90
8664;DHT22;4369;47.842;13.096;2023-11-19T07:14:33;6.60;99.90
8664;DHT22;4369;47.842;13.096;2023-11-19T07:17:00;6.60;99.90
8664;DHT22;4369;47.842;13.096;2023-11-19T07:19:27;6.70;99.90
8664;DHT22;4369;47.842;13.096;2023-11-19T07:21:54;6.70;99.90
8664;DHT22;4369;47.842;13.096;2023-11-19T07:24:21;6.80;99.90
8664;DHT22;4369;47.842;13.096;2023-11-19T07:26:48;6.80;99.90
8664;DHT22;4369;47.842;13.096;2023-11-19T07:29:15;6.80;99.90
8664;DHT22;4369;47.842;13.096;2023-11-19T07:31:43;6.80;99.90
8664;DHT22;4369;47.842;13.096;2023-11-19T07:34:10;6.70;99.90
8664;DHT22;4369;47.842;13.096;2023-11-19T07:36:37;6.80;99.90
8664;DHT22;4369;47.842;13.096;2023-11-19T07:39:06;6.80;99.90
8664;DHT22;4369;47.842;13.096;2023-11-19T07:41:33;6.80;99.90
8664;DHT22;4369;47.842;13.096;2023-11-19T07:44:01;6.70;99.90
8664;DHT22;4369;47.842;13.096;2023-11-19T07:46:28;6.70;99.90
8664;DHT22;4369;47.842;13.096;2023-11-19T07:48:54;6.70;99.90
8664;DHT22;4369;47.842;13.096;2023-11-19T07:51:21;6.80;99.90
8664;DHT22;4369;47.842;13.096;2023-11-19T07:53:48;6.80;99.90
8664;DHT22;4369;47.842;13.096;2023-11-19T07:56:17;6.80;99.90
8664;DHT22;4369;47.842;13.096;2023-11-19T07:58:42;6.90;99.90
8664;DHT22;4369;47.842;13.096;2023-11-19T08:01:09;6.80;99.90
8664;DHT22;4369;47.842;13.096;2023-11-19T08:03:36;6.80;99.90
8664;DHT22;4369;47.842;13.096;2023-11-19T08:06:04;6.90;99.90
8664;DHT22;4369;47.842;13.096;2023-11-19T08:08:31;6.90;99.90
8664;DHT22;4369;47.842;13.096;2023-11-19T08:10:59;6.90;99.90
8664;DHT22;4369;47.842;13.096;2023-11-19T08:13:27;6.90;99.90
8664;DHT22;4369;47.842;13.096;2023-11-19T08:15:54;7.00;99.90
8664;DHT22;4369;47.842;13.096;2023-11-19T08:18:21;7.00;99.90
8664;DHT22;4369;47.842;13.096;2023-11-19T08:20:48;7.10;99.90
8664;DHT22;4369;47.842;13.096;2023-11-19T08:23:19;7.10;99.90
8664;DHT22;4369;47.842;13.096;2023-11-19T08:25:46;7.10;99.90
8664;DHT22;4369;47.842;13.096;2023-11-19T08:28:13;7.20;99.90
8664;DHT22;4369;47.842;13.096;2023-11-19T08:30:41;7.10;99.90
8664;DHT22;4369;47.842;13.096;2023-11-19T08:33:09;7.10;99.90
8664;DHT22;4369;47.842;13.096;2023-11-19T08:35:37;7.20;99.90
8664;DHT22;4369;47.842;13.096;2023-11-19T08:38:04;7.20;99.90
8664;DHT22;4369;47.842;13.096;2023-11-19T08:40:30;7.10;99.90
8664;DHT22;4369;47.842;13.096;2023-11-19T08:42:57;7.10;99.90
8664;DHT22;4369;47.842;13.096;2023-11-19T08:45:25;7.10;99.90
8664;DHT22;4369;47.842;13.096;2023-11-19T08:47:53;7.20;99.90
8664;DHT22;4369;47.842;13.096;2023-11-19T08:50:20;7.20;99.90
8664;DHT22;4369;47.842;13.096;2023-11-19T08:52:47;7.20;99.90
8664;DHT22;4369;47.842;13.096;2023-11-19T08:55:14;7.30;99.90
8664;DHT22;4369;47.842;13.096;2023-11-19T08:57:42;7.30;99.90
8664;DHT22;4369;47.842;13.096;2023-11-19T09:00:09;7.40;99.90
8664;DHT22;4369;47.842;13.096;2023-11-19T09:02:36;7.40;99.90
8664;DHT22;4369;47.842;13.096;2023-11-19T09:05:05;7.40;99.90
8664;DHT22;4369;47.842;13.096;2023-11-19T09:07:33;7.50;99.90
8664;DHT22;4369;47.842;13.096;2023-11-19T09:09:59;7.50;99.90
8664;DHT22;4369;47.842;13.096;2023-11-19T09:12:27;7.50;99.90
8664;DHT22;4369;47.842;13.096;2023-11-19T09:14:54;7.50;99.90
8664;DHT22;4369;47.842;13.096;2023-11-19T09:17:20;7.50;99.90
8664;DHT22;4369;47.842;13.096;2023-11-19T09:19:47;7.60;99.90
8664;DHT22;4369;47.842;13.096;2023-11-19T09:22:15;7.60;99.90
8664;DHT22;4369;47.842;13.096;2023-11-19T09:24:42;7.50;99.90
8664;DHT22;4369;47.842;13.096;2023-11-19T09:27:10;7.50;99.90
8664;DHT22;4369;47.842;13.096;2023-11-19T09:29:37;7.60;99.90
8664;DHT22;4369;47.842;13.096;2023-11-19T09:32:05;7.60;99.90
8664;DHT22;4369;47.842;13.096;2023-11-19T09:34:32;7.60;99.90
8664;DHT22;4369;47.842;13.096;2023-11-19T09:36:59;7.60;99.90
8664;DHT22;4369;47.842;13.096;2023-11-19T09:39:27;7.60;99.90
8664;DHT22;4369;47.842;13.096;2023-11-19T09:41:54;7.70;99.90
8664;DHT22;4369;47.842;13.096;2023-11-19T09:44:21;7.70;99.90
8664;DHT22;4369;47.842;13.096;2023-11-19T09:46:48;7.80;99.90
8664;DHT22;4369;47.842;13.096;2023-11-19T09:49:19;7.90;99.90
8664;DHT22;4369;47.842;13.096;2023-11-19T09:51:47;7.90;99.90
8664;DHT22;4369;47.842;13.096;2023-11-19T09:54:14;8.00;99.90
8664;DHT22;4369;47.842;13.096;2023-11-19T09:56:43;8.00;99.90
8664;DHT22;4369;47.842;13.096;2023-11-19T09:59:11;8.00;99.90
8664;DHT22;4369;47.842;13.096;2023-11-19T10:01:38;8.10;99.90
8664;DHT22;4369;47.842;13.096;2023-11-19T10:04:06;8.20;99.90
8664;DHT22;4369;47.842;13.096;2023-11-19T10:06:34;8.20;99.90
8664;DHT22;4369;47.842;13.096;2023-11-19T10:09:01;8.20;99.90
8664;DHT22;4369;47.842;13.096;2023-11-19T10:11:30;8.20;99.90
8664;DHT22;4369;47.842;13.096;2023-11-19T10:13:59;8.30;99.90
8664;DHT22;4369;47.842;13.096;2023-11-19T10:16:28;8.30;99.90
8664;DHT22;4369;47.842;13.096;2023-11-19T10:18:57;8.40;99.90
8664;DHT22;4369;47.842;13.096;2023-11-19T10:21:24;8.50;99.90
8664;DHT22;4369;47.842;13.096;2023-11-19T10:23:54;8.50;99.90
8664;DHT22;4369;47.842;13.096;2023-11-19T10:26:22;8.60;99.90
8664;DHT22;4369;47.842;13.096;2023-11-19T10:28:52;8.80;99.90
8664;DHT22;4369;47.842;13.096;2023-11-19T10:31:21;9.00;99.90
8664;DHT22;4369;47.842;13.096;2023-11-19T10:33:50;9.10;99.90
8664;DHT22;4369;47.842;13.096;2023-11-19T10:36:17;9.10;99.90
8664;DHT22;4369;47.842;13.096;2023-11-19T10:38:52;9.10;99.90
8664;DHT22;4369;47.842;13.096;2023-11-19T10:41:27;9.10;99.90
8664;DHT22;4369;47.842;13.096;2023-11-19T10:43:54;9.20;99.90
8664;DHT22;4369;47.842;13.096;2023-11-19T10:46:22;9.20;99.90
8664;DHT22;4369;47.842;13.096;2023-11-19T10:48:49;9.20;99.90
8664;DHT22;4369;47.842;13.096;2023-11-19T10:51:19;9.20;99.90
8664;DHT22;4369;47.842;13.096;2023-11-19T10:53:49;9.20;99.90
8664;DHT22;4369;47.842;13.096;2023-11-19T10:56:17;9.20;99.90
8664;DHT22;4369;47.842;13.096;2023-11-19T10:58:49;9.20;99.90
8664;DHT22;4369;47.842;13.096;2023-11-19T11:01:19;9.10;99.90
8664;DHT22;4369;47.842;13.096;2023-11-19T11:03:51;9.00;99.90
8664;DHT22;4369;47.842;13.096;2023-11-19T11:06:20;8.90;99.90
8664;DHT22;4369;47.842;13.096;2023-11-19T11:08:49;8.90;99.90
8664;DHT22;4369;47.842;13.096;2023-11-19T11:11:16;9.00;99.90
8664;DHT22;4369;47.842;13.096;2023-11-19T11:13:47;9.10;99.90
8664;DHT22;4369;47.842;13.096;2023-11-19T11:16:15;9.00;99.90
8664;DHT22;4369;47.842;13.096;2023-11-19T11:18:44;9.00;99.90
8664;DHT22;4369;47.842;13.096;2023-11-19T11:21:17;9.10;99.90
8664;DHT22;4369;47.842;13.096;2023-11-19T11:24:14;9.00;99.90
8664;DHT22;4369;47.842;13.096;2023-11-19T11:29:56;9.00;99.90
8664;DHT22;4369;47.842;13.096;2023-11-19T11:32:34;9.10;99.90
8664;DHT22;4369;47.842;13.096;2023-11-19T11:35:19;9.70;99.90
8664;DHT22;4369;47.842;13.096;2023-11-19T11:38:00;9.90;99.90
8664;DHT22;4369;47.842;13.096;2023-11-19T11:40:28;10.10;99.90
8664;DHT22;4369;47.842;13.096;2023-11-19T11:42:55;10.20;99.90
8664;DHT22;4369;47.842;13.096;2023-11-19T11:45:35;10.40;99.90
8664;DHT22;4369;47.842;13.096;2023-11-19T11:48:14;11.90;99.90
8664;DHT22;4369;47.842;13.096;2023-11-19T11:50:49;12.60;99.90
8664;DHT22;4369;47.842;13.096;2023-11-19T11:53:18;13.70;99.90
8664;DHT22;4369;47.842;13.096;2023-11-19T11:55:58;14.50;99.90
8664;DHT22;4369;47.842;13.096;2023-11-19T11:58:29;14.80;99.90
8664;DHT22;4369;47.842;13.096;2023-11-19T12:00:58;14.70;99.90
8664;DHT22;4369;47.842;13.096;2023-11-19T12:03:27;14.30;99.90
8664;DHT22;4369;47.842;13.096;2023-11-19T12:05:55;16.90;99.90
8664;DHT22;4369;47.842;13.096;2023-11-19T12:08:27;18.40;24.90
8664;DHT22;4369;47.842;13.096;2023-11-19T12:10:55;18.50;99.90
8664;DHT22;4369;47.842;13.096;2023-11-19T12:13:28;18.30;1.00
8664;DHT22;4369;47.842;13.096;2023-11-19T12:16:08;17.20;1.00
8664;DHT22;4369;47.842;13.096;2023-11-19T12:18:39;15.70;99.90
8664;DHT22;4369;47.842;13.096;2023-11-19T12:21:06;14.70;1.00
8664;DHT22;4369;47.842;13.096;2023-11-19T12:23:44;14.00;1.00
8664;DHT22;4369;47.842;13.096;2023-11-19T12:26:21;13.30;99.90
8664;DHT22;4369;47.842;13.096;2023-11-19T12:28:58;12.90;1.00
8664;DHT22;4369;47.842;13.096;2023-11-19T12:31:24;12.60;1.00
8664;DHT22;4369;47.842;13.096;2023-11-19T12:33:51;12.30;28.40
8664;DHT22;4369;47.842;13.096;2023-11-19T12:36:19;12.10;91.10
8664;DHT22;4369;47.842;13.096;2023-11-19T12:38:47;11.70;99.90
8664;DHT22;4369;47.842;13.096;2023-11-19T12:41:14;11.50;99.90
8664;DHT22;4369;47.842;13.096;2023-11-19T12:43:46;11.30;99.90
8664;DHT22;4369;47.842;13.096;2023-11-19T12:46:19;11.20;99.90
8664;DHT22;4369;47.842;13.096;2023-11-19T12:48:47;11.20;99.90
8664;DHT22;4369;47.842;13.096;2023-11-19T12:51:15;11.10;99.90
8664;DHT22;4369;47.842;13.096;2023-11-19T12:53:50;11.10;99.90
8664;DHT22;4369;47.842;13.096;2023-11-19T12:56:20;11.00;99.90
8664;DHT22;4369;47.842;13.096;2023-11-19T12:58:47;10.90;99.90
8664;DHT22;4369;47.842;13.096;2023-11-19T13:01:16;10.90;99.90
8664;DHT22;4369;47.842;13.096;2023-11-19T13:03:44;11.00;99.90
8664;DHT22;4369;47.842;13.096;2023-11-19T13:06:13;11.10;99.90
8664;DHT22;4369;47.842;13.096;2023-11-19T13:08:42;11.10;99.90
8664;DHT22;4369;47.842;13.096;2023-11-19T13:11:12;11.10;99.90
8664;DHT22;4369;47.842;13.096;2023-11-19T13:13:54;11.20;99.90
8664;DHT22;4369;47.842;13.096;2023-11-19T13:16:21;11.30;99.90
8664;DHT22;4369;47.842;13.096;2023-11-19T13:18:47;11.50;99.90
8664;DHT22;4369;47.842;13.096;2023-11-19T13:21:14;11.80;99.90
8664;DHT22;4369;47.842;13.096;2023-11-19T13:23:41;12.10;99.90
8664;DHT22;4369;47.842;13.096;2023-11-19T13:26:10;12.50;99.90
8664;DHT22;4369;47.842;13.096;2023-11-19T13:28:37;12.80;99.90
8664;DHT22;4369;47.842;13.096;2023-11-19T13:31:05;12.80;99.90
8664;DHT22;4369;47.842;13.096;2023-11-19T13:33:32;12.90;99.90
8664;DHT22;4369;47.842;13.096;2023-11-19T13:35:59;12.90;99.90
8664;DHT22;4369;47.842;13.096;2023-11-19T13:38:31;12.80;99.90
8664;DHT22;4369;47.842;13.096;2023-11-19T13:40:58;12.70;99.90
8664;DHT22;4369;47.842;13.096;2023-11-19T13:43:26;12.60;99.90
8664;DHT22;4369;47.842;13.096;2023-11-19T13:45:54;12.40;99.90
8664;DHT22;4369;47.842;13.096;2023-11-19T13:48:21;12.30;99.90
8664;DHT22;4369;47.842;13.096;2023-11-19T13:50:48;12.10;99.90
8664;DHT22;4369;47.842;13.096;2023-11-19T13:53:15;11.90;99.90
8664;DHT22;4369;47.842;13.096;2023-11-19T13:55:42;11.80;99.90
8664;DHT22;4369;47.842;13.096;2023-11-19T13:58:09;11.90;99.90
8664;DHT22;4369;47.842;13.096;2023-11-19T14:00:38;11.80;99.90
8664;DHT22;4369;47.842;13.096;2023-11-19T14:03:05;11.80;99.90
8664;DHT22;4369;47.842;13.096;2023-11-19T14:05:32;11.70;99.90
8664;DHT22;4369;47.842;13.096;2023-11-19T14:08:01;11.60;99.90
8664;DHT22;4369;47.842;13.096;2023-11-19T14:10:28;11.50;99.90
8664;DHT22;4369;47.842;13.096;2023-11-19T14:12:55;11.40;99.90
8664;DHT22;4369;47.842;13.096;2023-11-19T14:15:22;11.30;99.90
8664;DHT22;4369;47.842;13.096;2023-11-19T14:17:50;11.20;99.90
8664;DHT22;4369;47.842;13.096;2023-11-19T14:20:17;11.30;99.90
8664;DHT22;4369;47.842;13.096;2023-11-19T14:22:45;11.50;99.90
8664;DHT22;4369;47.842;13.096;2023-11-19T14:25:14;11.60;99.90
8664;DHT22;4369;47.842;13.096;2023-11-19T14:27:42;11.50;99.90
8664;DHT22;4369;47.842;13.096;2023-11-19T14:30:11;11.50;99.90
8664;DHT22;4369;47.842;13.096;2023-11-19T14:32:40;11.40;99.90
8664;DHT22;4369;47.842;13.096;2023-11-19T14:35:09;11.30;99.90
8664;DHT22;4369;47.842;13.096;2023-11-19T14:37:36;11.20;99.90
8664;DHT22;4369;47.842;13.096;2023-11-19T14:40:03;11.10;99.90
8664;DHT22;4369;47.842;13.096;2023-11-19T14:42:31;11.10;99.90
8664;DHT22;4369;47.842;13.096;2023-11-19T14:44:58;11.10;99.90
8664;DHT22;4369;47.842;13.096;2023-11-19T14:47:25;11.00;99.90
8664;DHT22;4369;47.842;13.096;2023-11-19T14:49:52;10.90;99.90
8664;DHT22;4369;47.842;13.096;2023-11-19T14:52:21;10.80;99.90
8664;DHT22;4369;47.842;13.096;2023-11-19T14:54:47;10.80;99.90
8664;DHT22;4369;47.842;13.096;2023-11-19T14:57:16;10.60;99.90
8664;DHT22;4369;47.842;13.096;2023-11-19T14:59:43;10.50;99.90
8664;DHT22;4369;47.842;13.096;2023-11-19T15:02:11;10.50;99.90
8664;DHT22;4369;47.842;13.096;2023-11-19T15:04:38;10.40;99.90
8664;DHT22;4369;47.842;13.096;2023-11-19T15:07:06;10.40;99.90
8664;DHT22;4369;47.842;13.096;2023-11-19T15:09:35;10.30;99.90
8664;DHT22;4369;47.842;13.096;2023-11-19T15:12:02;10.30;99.90
8664;DHT22;4369;47.842;13.096;2023-11-19T15:14:29;10.30;99.90
8664;DHT22;4369;47.842;13.096;2023-11-19T15:16:56;10.20;99.90
8664;DHT22;4369;47.842;13.096;2023-11-19T15:19:23;10.10;99.90
8664;DHT22;4369;47.842;13.096;2023-11-19T15:21:50;10.10;99.90
8664;DHT22;4369;47.842;13.096;2023-11-19T15:24:17;10.10;99.90
8664;DHT22;4369;47.842;13.096;2023-11-19T15:26:45;10.10;99.90
8664;DHT22;4369;47.842;13.096;2023-11-19T15:29:12;10.20;99.90
8664;DHT22;4369;47.842;13.096;2023-11-19T15:31:39;10.10;99.90
8664;DHT22;4369;47.842;13.096;2023-11-19T15:34:06;10.10;99.90
8664;DHT22;4369;47.842;13.096;2023-11-19T15:36:33;10.00;99.90
8664;DHT22;4369;47.842;13.096;2023-11-19T15:39:01;9.90;99.90
8664;DHT22;4369;47.842;13.096;2023-11-19T15:41:29;9.80;99.90
8664;DHT22;4369;47.842;13.096;2023-11-19T15:43:57;9.80;99.90
8664;DHT22;4369;47.842;13.096;2023-11-19T15:46:24;9.70;99.90
8664;DHT22;4369;47.842;13.096;2023-11-19T15:48:51;9.70;99.90
8664;DHT22;4369;47.842;13.096;2023-11-19T15:51:18;9.60;99.90
8664;DHT22;4369;47.842;13.096;2023-11-19T15:53:44;9.60;99.90
8664;DHT22;4369;47.842;13.096;2023-11-19T15:56:12;9.60;99.90
8664;DHT22;4369;47.842;13.096;2023-11-19T15:58:39;9.60;99.90
8664;DHT22;4369;47.842;13.096;2023-11-19T16:01:07;9.50;99.90
8664;DHT22;4369;47.842;13.096;2023-11-19T16:03:34;9.50;99.90
8664;DHT22;4369;47.842;13.096;2023-11-19T16:06:02;9.60;99.90